Flight Track Log - Related Links

Times and Time Zones

All times are in EDT time to prevent confusion due to time zone crossing. See the DAL3721 flight status page for this flight to view local times or setup timezone preferences in your user account.

Time Position Orientation Groundspeed Altitude Reporting Facility
EDT Latitude Longitude Course Direction KTS MPH feet Rate Location/Type
Tue 08:05:20 PM 39.0500 -84.6833 158° South 143 165 1,600  Level Cincinnati TRACON
Tue 08:06:32 PM 39.0500 -84.7667 270° West 217 250 3,000 1,864 Climbing Cincinnati TRACON
Tue 08:07:32 PM 39.0500 -84.8500 270° West 259 298 5,700 2,769 Climbing Cincinnati TRACON
Tue 08:08:29 PM 39.0472 -84.9419 268° West 259 298 8,400 2,420 Climbing Indianapolis Center
Tue 08:09:31 PM 39.0717 -85.0281 290° West 257 296 10,500 1,512 Climbing Indianapolis Center
Tue 08:10:32 PM 39.1022 -85.1258 292° West 288 331 11,500 1,230 Climbing Indianapolis Center
Tue 08:11:00 PM 39.0249 -84.6552 158° South  Level FlightAware Approximate
Tue 08:11:33 PM 39.1250 -85.2375 285° West 306 352 13,000  Level Indianapolis Center
Tue 08:12:35 PM 39.1444 -85.3517 282° West 318 366 14,500 1,463 Climbing Indianapolis Center
Tue 08:13:36 PM 39.1653 -85.4681 283° West 327 376 16,000 1,475 Climbing Indianapolis Center
Tue 08:14:37 PM 39.1861 -85.5858 283° West 333 383 17,500 1,512 Climbing Indianapolis Center
Tue 08:15:39 PM 39.2069 -85.7014 283° West 333 383 19,100 1,512 Climbing Indianapolis Center
Tue 08:16:40 PM 39.2314 -85.8381 283° West 332 382 20,600 1,279 Climbing Indianapolis Center
Tue 08:17:41 PM 39.2514 -85.9531 283° West 331 381 21,700 1,024 Climbing Indianapolis Center
Tue 08:18:43 PM 39.2714 -86.0689 283° West 331 381 22,700 976 Climbing Indianapolis Center
Tue 08:19:44 PM 39.2911 -86.1853 282° West 331 381 23,700 829 Climbing Indianapolis Center
Tue 08:20:46 PM 39.3119 -86.3031 283° West 331 381 24,400 585 Climbing Indianapolis Center
Tue 08:21:47 PM 39.3322 -86.4236 282° West 337 388 24,900 488 Climbing Indianapolis Center
Tue 08:22:49 PM 39.3539 -86.5475 283° West 347 399 25,400 488 Climbing Indianapolis Center
Tue 08:23:50 PM 39.3753 -86.6728 282° West 350 403 25,900 492 Climbing Indianapolis Center
Tue 08:24:51 PM 39.3969 -86.7983 283° West 352 405 26,400 488 Climbing Indianapolis Center
Tue 08:25:53 PM 39.4172 -86.9250 282° West 356 410 26,900 488 Climbing Indianapolis Center
Tue 08:26:54 PM 39.4386 -87.0508 282° West 357 411 27,400 537 Climbing Indianapolis Center
Tue 08:27:56 PM 39.4636 -87.2028 282° West 358 412 28,000 293 Climbing Indianapolis Center
Tue 08:28:57 PM 39.4844 -87.3303 282° West 359 413 28,000  Level Indianapolis Center
Tue 08:29:59 PM 39.5053 -87.4617 282° West 367 422 28,000  Level Indianapolis Center
Tue 08:31:00 PM 39.5264 -87.5914 282° West 369 425 28,000  Level Indianapolis Center
Tue 08:32:02 PM 39.5469 -87.7222 282° West 369 425 28,000  Level Indianapolis Center
Tue 08:33:03 PM 39.5678 -87.8519 282° West 370 426 28,000  Level Indianapolis Center
Tue 08:34:05 PM 39.5892 -87.9825 282° West 369 425 28,000  Level Indianapolis Center
Tue 08:35:06 PM 39.6011 -88.1147 277° West 369 425 28,000  Level Indianapolis Center
Tue 08:36:07 PM 39.6036 -88.2469 271° West 369 425 28,000  Level Indianapolis Center
Tue 08:37:09 PM 39.6089 -88.4022 273° West 369 425 28,000  Level Indianapolis Center
Tue 08:38:10 PM 39.6125 -88.5378 272° West 369 425 28,000  Level Indianapolis Center
Tue 08:39:18 PM 39.6150 -88.6678 271° West 369 425 28,000  Level Kansas City Center
Tue 08:40:18 PM 39.6183 -88.7989 272° West 369 425 28,000  Level Kansas City Center
Tue 08:41:19 PM 39.6219 -88.9317 272° West 369 425 28,000  Level Kansas City Center
Tue 08:42:22 PM 39.6258 -89.0914 272° West 369 425 28,000  Level Kansas City Center
Tue 08:43:23 PM 39.6272 -89.2269 271° West 370 426 28,000  Level Kansas City Center
Tue 08:44:24 PM 39.6297 -89.3431 272° West 370 426 28,000  Level Kansas City Center
Tue 08:45:25 PM 39.6331 -89.5006 272° West 369 425 28,000  Level Kansas City Center
Tue 08:46:29 PM 39.6350 -89.6300 271° West 365 420 28,000  Level Kansas City Center
Tue 08:47:29 PM 39.6372 -89.7600 271° West 365 420 28,000  Level Kansas City Center
Tue 08:48:30 PM 39.6394 -89.8922 271° West 365 420 28,000  Level Kansas City Center
Tue 08:49:33 PM 39.6419 -90.0264 271° West 368 423 28,000  Level Kansas City Center
Tue 08:50:34 PM 39.6431 -90.1592 271° West 369 425 28,000  Level Kansas City Center
Tue 08:51:35 PM 39.6447 -90.2925 271° West 369 425 28,000  Level Kansas City Center
Tue 08:52:39 PM 39.6472 -90.4497 271° West 369 425 28,000  Level Kansas City Center
Tue 08:53:39 PM 39.6492 -90.5797 271° West 368 423 28,000  Level Kansas City Center
Tue 08:54:41 PM 39.6500 -90.7114 271° West 368 423 28,000  Level Kansas City Center
Tue 08:55:41 PM 39.6506 -90.8450 270° West 368 423 28,000  Level Kansas City Center
Tue 08:56:45 PM 39.6514 -90.9761 271° West 368 423 28,000  Level Kansas City Center
Tue 08:57:45 PM 39.6517 -91.1056 270° West 366 421 28,000  Level Kansas City Center
Tue 08:58:46 PM 39.6528 -91.2386 271° West 367 422 28,000  Level Kansas City Center
Tue 08:59:50 PM 39.6533 -91.3936 270° West 367 422 28,000  Level Kansas City Center
Tue 09:00:50 PM 39.6525 -91.5244 270° West 367 422 28,000  Level Kansas City Center
Tue 09:01:51 PM 39.6525 -91.6564 270° West 367 422 28,000  Level Kansas City Center
Tue 09:02:55 PM 39.6519 -91.7897 270° West 368 423 28,000  Level Kansas City Center
Tue 09:03:55 PM 39.6522 -91.9236 270° West 368 423 28,000  Level Kansas City Center
Tue 09:04:57 PM 39.6517 -92.0833 270° West 369 425 28,000  Level Kansas City Center
Tue 09:05:58 PM 39.6519 -92.2153 270° West 369 425 28,000  Level Kansas City Center
Tue 09:06:59 PM 39.6503 -92.3508 269° West 370 426 28,000 -683 Level Kansas City Center
Tue 09:08:01 PM 39.6489 -92.4842 269° West 371 427 26,600 -1,415 Descending Kansas City Center
Tue 09:09:02 PM 39.6489 -92.6175 270° West 371 427 25,100 -1,488 Descending Kansas City Center
Tue 09:10:02 PM 39.6475 -92.7472 269° West 369 425 23,600 -1,463 Descending Kansas City Center
Tue 09:11:05 PM 39.6461 -92.8728 269° West 357 411 22,100 -1,452 Descending Kansas City Center
Tue 09:12:06 PM 39.6444 -93.0003 269° West 356 410 20,600 -1,584 Descending Kansas City Center
Tue 09:13:10 PM 39.6425 -93.1525 269° West 356 410 18,800 -1,488 Descending Kansas City Center
Tue 09:14:11 PM 39.6403 -93.2797 269° West 355 409 17,500 -1,140 Descending Kansas City Center
Tue 09:15:11 PM 39.6369 -93.4042 268° West 354 407 16,500 -984 Descending Kansas City Center
Tue 09:16:13 PM 39.6361 -93.5294 270° West 354 407 15,500 -984 Descending Kansas City Center
Tue 09:17:13 PM 39.6358 -93.6506 270° West 343 395 14,500 -1,082 Descending Kansas City Center
Tue 09:18:15 PM 39.6317 -93.7883 268° West 337 388 13,300 -1,065 Descending Kansas City Center
Tue 09:19:17 PM 39.6161 -93.9061 260° West 337 388 12,300 -629 Descending Kansas City Center
Tue 09:20:19 PM 39.5625 -94.0083 236° Southwest 341 392 12,000 -98 Descending Kansas City Center
Tue 09:21:20 PM 39.5108 -94.1131 237° Southwest 343 395 12,100  Climbing Kansas City Center
Tue 09:22:21 PM 39.4592 -94.2161 237° Southwest 343 395 12,000 -634 Descending Kansas City Center
Tue 09:23:23 PM 39.4078 -94.3167 237° Southwest 337 388 10,800 -1,171 Descending Kansas City Center
Tue 09:24:24 PM 39.3636 -94.4019 236° Southwest 285 328 9,600 -1,296 Descending Kansas City Center
Tue 09:25:28 PM 39.3219 -94.4847 237° Southwest 277 319 8,100 -1,440 Descending Kansas City Center
Tue 09:26:29 PM 39.2689 -94.5536 225° Southwest 280 322 6,600 -1,339 Descending Kansas City Center
Tue 09:27:29 PM 39.1908 -94.6169 212° Southwest 278 320 5,400 -1,328 Descending Kansas City Center
Tue 09:28:31 PM 39.1467 -94.6856 230° Southwest 263 303 3,900 -1,210 Descending Kansas City Center
Tue 09:29:33 PM 39.1889 -94.7358 317° Northwest 231 266 2,900 -934 Descending Kansas City Center
Tue 09:30:33 PM 39.2386 -94.7222 12° North 184 212 2,000 -787 Descending Kansas City Center
Tue 09:31:35 PM 39.2725 -94.7122 13° North 131 151 1,300 -677 Descending Kansas City Center

Login

Don't have an account? Register now (free) for customized features, flight alerts, and more!